createdAt,value
2018-12-14T00:00:41.057Z,937.01
2018-12-14T00:01:49.194Z,936.92
2018-12-14T00:02:57.181Z,936.95
2018-12-14T00:04:05.186Z,936.95
2018-12-14T00:05:13.278Z,936.92
2018-12-14T00:06:21.325Z,936.91
2018-12-14T00:07:29.462Z,936.92
2018-12-14T00:08:37.506Z,937.00
2018-12-14T00:09:45.448Z,936.95
2018-12-14T00:10:53.644Z,936.95
2018-12-14T00:12:01.584Z,936.98
2018-12-14T00:13:09.710Z,937.02
2018-12-14T00:14:17.669Z,937.05
2018-12-14T00:15:25.699Z,937.04
2018-12-14T00:16:33.778Z,937.04
2018-12-14T00:17:41.818Z,937.05
2018-12-14T00:18:49.969Z,937.07
2018-12-14T00:19:57.919Z,937.08
2018-12-14T00:21:05.980Z,937.00
2018-12-14T00:22:14.041Z,937.03
2018-12-14T00:23:22.179Z,937.03
2018-12-14T00:24:30.564Z,937.02
2018-12-14T00:25:38.191Z,937.12
2018-12-14T00:26:46.225Z,937.06
2018-12-14T00:27:54.331Z,937.05
2018-12-14T00:29:02.340Z,937.01
2018-12-14T00:30:10.490Z,937.08
2018-12-14T00:31:18.493Z,937.04
2018-12-14T00:32:26.506Z,937.04
2018-12-14T00:33:34.535Z,937.01
2018-12-14T00:34:42.654Z,937.07
2018-12-14T00:35:50.748Z,937.06
2018-12-14T00:36:58.703Z,937.08
2018-12-14T00:38:06.750Z,937.10
2018-12-14T00:39:14.883Z,937.15
2018-12-14T00:40:22.863Z,937.15
2018-12-14T00:41:31.013Z,937.19
2018-12-14T00:42:38.947Z,937.11
2018-12-14T00:43:47.004Z,937.17
2018-12-14T00:44:55.045Z,937.15
2018-12-14T00:46:03.116Z,937.13
2018-12-14T00:47:11.611Z,937.17
2018-12-14T00:48:19.218Z,937.12
2018-12-14T00:49:27.268Z,937.22
2018-12-14T00:50:35.303Z,937.20
2018-12-14T00:51:43.375Z,937.18
2018-12-14T00:52:51.520Z,937.18
2018-12-14T00:53:59.480Z,937.14
2018-12-14T00:55:07.622Z,937.10
2018-12-14T00:56:15.563Z,937.14
2018-12-14T00:57:23.636Z,937.16
2018-12-14T00:58:31.673Z,937.12
2018-12-14T00:59:39.721Z,937.18
2018-12-14T01:00:47.798Z,937.14
2018-12-14T01:01:55.830Z,937.16
2018-12-14T01:03:03.985Z,937.19
2018-12-14T01:04:11.932Z,937.21
2018-12-14T01:05:19.985Z,937.20
2018-12-14T01:06:28.096Z,937.18
2018-12-14T01:07:36.199Z,937.25
2018-12-14T01:08:44.136Z,937.27
2018-12-14T01:09:52.200Z,937.22
2018-12-14T01:11:00.347Z,937.21
2018-12-14T01:12:08.310Z,937.20
2018-12-14T01:13:16.449Z,937.25
2018-12-14T01:14:24.534Z,937.27
2018-12-14T01:15:32.471Z,937.31
2018-12-14T01:16:40.516Z,937.19
2018-12-14T01:17:48.655Z,937.23
2018-12-14T01:18:56.602Z,937.35
2018-12-14T01:20:04.668Z,937.33
2018-12-14T01:21:12.723Z,937.28
2018-12-14T01:22:20.806Z,937.35
2018-12-14T01:23:29.075Z,937.35
2018-12-14T01:24:36.889Z,937.32
2018-12-14T01:25:44.900Z,937.32
2018-12-14T01:26:53.074Z,937.32
2018-12-14T01:28:01.033Z,937.31
2018-12-14T01:29:09.163Z,937.35
2018-12-14T01:30:17.139Z,937.36
2018-12-14T01:31:25.188Z,937.40
2018-12-14T01:32:33.223Z,937.43
2018-12-14T01:33:41.292Z,937.44
2018-12-14T01:34:49.419Z,937.48
2018-12-14T01:35:57.385Z,937.51
2018-12-14T01:37:05.430Z,937.51
2018-12-14T01:38:13.490Z,937.51
2018-12-14T01:39:21.552Z,937.54
2018-12-14T01:40:29.696Z,937.51
2018-12-14T01:41:37.644Z,937.55
2018-12-14T01:42:45.762Z,937.50
2018-12-14T01:43:53.745Z,937.51
2018-12-14T01:45:01.801Z,937.60
2018-12-14T01:46:09.949Z,937.52
2018-12-14T01:47:17.902Z,937.54
2018-12-14T01:48:25.955Z,937.53
2018-12-14T01:49:34.000Z,937.49
2018-12-14T01:50:42.058Z,937.50
2018-12-14T01:51:50.196Z,937.59
2018-12-14T01:52:58.158Z,937.48
2018-12-14T01:54:06.221Z,937.52
2018-12-14T01:55:14.276Z,937.51
2018-12-14T01:56:22.326Z,937.48
2018-12-14T01:57:30.456Z,937.42
2018-12-14T01:58:38.433Z,937.41
2018-12-14T01:59:46.493Z,937.48
2018-12-14T02:00:54.525Z,937.38
2018-12-14T02:02:02.579Z,937.43
2018-12-14T02:03:10.741Z,937.42
2018-12-14T02:04:18.693Z,937.41
2018-12-14T02:05:26.758Z,937.35
2018-12-14T02:06:34.784Z,937.40
2018-12-14T02:07:42.940Z,937.35
2018-12-14T02:08:50.892Z,937.36
2018-12-14T02:09:58.946Z,937.42
2018-12-14T02:11:07.002Z,937.36
2018-12-14T02:12:15.044Z,937.39
2018-12-14T02:13:23.215Z,937.41
2018-12-14T02:14:31.146Z,937.39
2018-12-14T02:15:39.205Z,937.42
2018-12-14T02:16:47.256Z,937.34
2018-12-14T02:17:55.303Z,937.37
2018-12-14T02:19:03.454Z,937.37
2018-12-14T02:20:11.432Z,937.40
2018-12-14T02:21:19.467Z,937.41
2018-12-14T02:22:27.680Z,937.43
2018-12-14T02:23:35.550Z,937.43
2018-12-14T02:24:43.715Z,937.38
2018-12-14T02:25:51.677Z,937.38
2018-12-14T02:26:59.724Z,937.39
2018-12-14T02:28:07.870Z,937.38
2018-12-14T02:29:15.817Z,937.37
2018-12-14T02:30:23.993Z,937.35
2018-12-14T02:31:31.938Z,937.38
2018-12-14T02:32:39.989Z,937.39
2018-12-14T02:33:48.024Z,937.40
2018-12-14T02:34:56.111Z,937.43
2018-12-14T02:36:04.587Z,937.39
2018-12-14T02:37:12.210Z,937.42
2018-12-14T02:38:20.252Z,937.46
2018-12-14T02:39:28.299Z,937.44
2018-12-14T02:40:36.349Z,937.49
2018-12-14T02:41:44.503Z,937.47
2018-12-14T02:42:52.549Z,937.48
2018-12-14T02:44:00.502Z,937.47
2018-12-14T02:45:08.573Z,937.50
2018-12-14T02:46:16.602Z,937.51
2018-12-14T02:47:24.751Z,937.46
2018-12-14T02:48:32.716Z,937.52
2018-12-14T02:49:40.757Z,937.50
2018-12-14T02:50:48.810Z,937.53
2018-12-14T02:51:56.860Z,937.52
2018-12-14T02:53:05.005Z,937.54
2018-12-14T02:54:12.984Z,937.53
2018-12-14T02:55:21.028Z,937.56
2018-12-14T02:56:29.073Z,937.52
2018-12-14T02:57:37.231Z,937.50
2018-12-14T02:58:45.268Z,937.58
2018-12-14T02:59:53.242Z,937.55
2018-12-14T03:01:01.304Z,937.57
2018-12-14T03:02:09.353Z,937.57
2018-12-14T03:03:17.495Z,937.57
2018-12-14T03:04:25.438Z,937.55
2018-12-14T03:05:33.488Z,937.60
2018-12-14T03:06:41.550Z,937.62
2018-12-14T03:07:49.735Z,937.61
2018-12-14T03:08:57.644Z,937.64
2018-12-14T03:10:05.725Z,937.58
2018-12-14T03:11:13.760Z,937.62
2018-12-14T03:12:26.606Z,937.61
2018-12-14T03:13:29.983Z,937.58
2018-12-14T03:14:37.995Z,937.55
2018-12-14T03:15:45.977Z,937.60
2018-12-14T03:16:54.021Z,937.58
2018-12-14T03:18:02.071Z,937.58
2018-12-14T03:19:10.195Z,937.62
2018-12-14T03:20:18.177Z,937.58
2018-12-14T03:21:26.280Z,937.67
2018-12-14T03:22:34.287Z,937.61
2018-12-14T03:23:42.324Z,937.60
2018-12-14T03:24:50.479Z,937.61
2018-12-14T03:25:58.581Z,937.64
2018-12-14T03:27:06.499Z,937.59
2018-12-14T03:28:14.542Z,937.61
2018-12-14T03:29:22.589Z,937.62
2018-12-14T03:30:30.743Z,937.60
2018-12-14T03:31:38.699Z,937.64
2018-12-14T03:32:46.758Z,937.55
2018-12-14T03:33:54.808Z,937.60
2018-12-14T03:35:02.845Z,937.58
2018-12-14T03:36:10.998Z,937.63
2018-12-14T03:37:18.965Z,937.64
2018-12-14T03:38:26.988Z,937.63
2018-12-14T03:39:35.047Z,937.58
2018-12-14T03:40:43.120Z,937.57
2018-12-14T03:41:51.256Z,937.64
2018-12-14T03:42:59.226Z,937.58
2018-12-14T03:44:07.290Z,937.61
2018-12-14T03:45:15.305Z,937.58
2018-12-14T03:46:23.475Z,937.61
2018-12-14T03:47:31.475Z,937.55
2018-12-14T03:48:39.481Z,937.58
2018-12-14T03:49:47.527Z,937.57
2018-12-14T03:50:55.556Z,937.56
2018-12-14T03:52:03.624Z,937.60
2018-12-14T03:53:11.769Z,937.63
2018-12-14T03:54:19.736Z,937.66
2018-12-14T03:55:27.787Z,937.62
2018-12-14T03:56:35.824Z,937.64
2018-12-14T03:57:43.980Z,937.70
2018-12-14T03:58:51.919Z,937.75
2018-12-14T04:00:00.030Z,937.72
2018-12-14T04:01:08.031Z,937.72
2018-12-14T04:02:16.203Z,937.76
2018-12-14T04:03:24.259Z,937.73
2018-12-14T04:04:32.221Z,937.80
2018-12-14T04:05:40.311Z,937.75
2018-12-14T04:06:48.302Z,937.82
2018-12-14T04:07:56.354Z,937.81
2018-12-14T04:09:04.528Z,937.79
2018-12-14T04:10:12.461Z,937.82
2018-12-14T04:11:20.525Z,937.78
2018-12-14T04:12:28.557Z,937.81
2018-12-14T04:13:36.614Z,937.78
2018-12-14T04:14:44.755Z,937.77
2018-12-14T04:15:52.725Z,937.82
2018-12-14T04:17:00.780Z,937.85
2018-12-14T04:18:08.918Z,937.80
2018-12-14T04:19:16.884Z,937.83
2018-12-14T04:20:25.014Z,937.80
2018-12-14T04:21:32.966Z,937.76
2018-12-14T04:22:41.046Z,937.79
2018-12-14T04:23:49.099Z,937.76
2018-12-14T04:24:57.143Z,937.81
2018-12-14T04:26:05.267Z,937.69
2018-12-14T04:27:13.239Z,937.75
2018-12-14T04:28:21.287Z,937.73
2018-12-14T04:29:29.338Z,937.77
2018-12-14T04:30:37.401Z,937.84
2018-12-14T04:31:45.518Z,937.79
2018-12-14T04:32:53.607Z,937.79
2018-12-14T04:34:01.570Z,937.77
2018-12-14T04:35:09.610Z,937.75
2018-12-14T04:36:17.802Z,937.81
2018-12-14T04:37:25.784Z,937.79
2018-12-14T04:38:33.761Z,937.78
2018-12-14T04:39:41.829Z,937.79
2018-12-14T04:40:49.870Z,937.76
2018-12-14T04:41:57.922Z,937.78
2018-12-14T04:43:06.054Z,937.76
2018-12-14T04:44:14.018Z,937.84
2018-12-14T04:45:22.074Z,937.85
2018-12-14T04:46:30.115Z,937.85
2018-12-14T04:47:38.290Z,937.94
2018-12-14T04:48:46.216Z,937.94
2018-12-14T04:49:54.284Z,937.90
2018-12-14T04:51:02.317Z,937.99
2018-12-14T04:52:10.397Z,937.91
2018-12-14T04:53:18.527Z,937.92
2018-12-14T04:54:26.492Z,937.97
2018-12-14T04:55:34.548Z,938.00
2018-12-14T04:56:42.601Z,937.94
2018-12-14T04:57:50.639Z,937.99
2018-12-14T04:58:58.786Z,937.99
2018-12-14T05:00:06.749Z,938.06
2018-12-14T05:01:14.793Z,938.08
2018-12-14T05:02:22.864Z,938.05
2018-12-14T05:03:30.996Z,938.03
2018-12-14T05:04:39.043Z,938.07
2018-12-14T05:05:47.008Z,938.10
2018-12-14T05:06:55.047Z,938.15
2018-12-14T05:08:03.104Z,938.04
2018-12-14T05:09:11.191Z,938.02
2018-12-14T05:10:19.355Z,938.09
2018-12-14T05:11:27.271Z,938.05
2018-12-14T05:12:35.317Z,938.06
2018-12-14T05:13:43.386Z,938.10
2018-12-14T05:14:51.409Z,938.11
2018-12-14T05:15:59.611Z,938.04
2018-12-14T05:17:07.522Z,938.00
2018-12-14T05:18:15.563Z,938.05
2018-12-14T05:19:23.727Z,937.98
2018-12-14T05:20:31.678Z,937.97
2018-12-14T05:21:39.839Z,938.00
2018-12-14T05:22:47.778Z,937.96
2018-12-14T05:23:55.818Z,937.99
2018-12-14T05:25:03.883Z,938.03
2018-12-14T05:26:11.926Z,938.02
2018-12-14T05:27:20.084Z,937.99
2018-12-14T05:28:28.027Z,938.00
2018-12-14T05:29:36.102Z,938.02
2018-12-14T05:30:44.146Z,938.10
2018-12-14T05:31:52.187Z,938.07
2018-12-14T05:33:00.322Z,938.11
2018-12-14T05:34:08.300Z,938.16
2018-12-14T05:35:16.438Z,938.14
2018-12-14T05:36:24.392Z,938.17
2018-12-14T05:37:32.499Z,938.21
2018-12-14T05:38:40.507Z,938.17
2018-12-14T05:39:48.557Z,938.20
2018-12-14T05:40:56.615Z,938.18
2018-12-14T05:42:04.658Z,938.20
2018-12-14T05:43:12.795Z,938.20
2018-12-14T05:44:21.152Z,938.24
2018-12-14T05:45:28.823Z,938.22
2018-12-14T05:46:36.865Z,938.23
2018-12-14T05:47:45.082Z,938.27
2018-12-14T05:48:53.070Z,938.28
2018-12-14T05:50:01.159Z,938.27
2018-12-14T05:51:09.156Z,938.34
2018-12-14T05:52:17.134Z,938.28
2018-12-14T05:53:25.144Z,938.35
2018-12-14T05:54:33.326Z,938.32
2018-12-14T05:55:41.305Z,938.31
2018-12-14T05:56:49.325Z,938.30
2018-12-14T05:57:57.377Z,938.31
2018-12-14T05:59:05.400Z,938.29
2018-12-14T06:00:13.577Z,938.29
2018-12-14T06:01:21.527Z,938.30
2018-12-14T06:02:29.589Z,938.25
2018-12-14T06:03:37.638Z,938.26
2018-12-14T06:04:45.679Z,938.29
2018-12-14T06:05:53.860Z,938.26
2018-12-14T06:07:02.873Z,938.20
2018-12-14T06:08:09.834Z,938.27
2018-12-14T06:09:17.899Z,938.29
2018-12-14T06:10:25.967Z,938.26
2018-12-14T06:11:34.130Z,938.27
2018-12-14T06:12:42.062Z,938.25
2018-12-14T06:13:50.112Z,938.26
2018-12-14T06:14:58.147Z,938.26
2018-12-14T06:16:06.227Z,938.27
2018-12-14T06:17:14.351Z,938.29
2018-12-14T06:18:22.322Z,938.28
2018-12-14T06:19:30.469Z,938.32
2018-12-14T06:20:40.491Z,938.30
2018-12-14T06:21:46.468Z,938.30
2018-12-14T06:22:54.617Z,938.27
2018-12-14T06:24:02.560Z,938.30
2018-12-14T06:25:10.638Z,938.28
2018-12-14T06:26:18.670Z,938.30
2018-12-14T06:27:26.818Z,938.26
2018-12-14T06:28:34.766Z,938.30
2018-12-14T06:29:43.066Z,938.31
2018-12-14T06:30:50.891Z,938.30
2018-12-14T06:31:59.034Z,938.34
2018-12-14T06:33:07.023Z,938.32
2018-12-14T06:34:15.009Z,938.31
2018-12-14T06:35:23.080Z,938.30
2018-12-14T06:36:31.135Z,938.32
2018-12-14T06:37:39.220Z,938.33
2018-12-14T06:38:47.249Z,938.36
2018-12-14T06:39:55.271Z,938.37
2018-12-14T06:41:03.339Z,938.38
2018-12-14T06:42:11.394Z,938.37
2018-12-14T06:43:19.531Z,938.40
2018-12-14T06:44:28.004Z,938.44
2018-12-14T06:45:35.525Z,938.43
2018-12-14T06:46:43.585Z,938.36
2018-12-14T06:47:51.768Z,938.40
2018-12-14T06:48:59.697Z,938.43
2018-12-14T06:50:07.751Z,938.42
2018-12-14T06:51:17.716Z,938.41
2018-12-14T06:52:23.857Z,938.39
2018-12-14T06:53:31.998Z,938.45
2018-12-14T06:54:39.958Z,938.44
2018-12-14T06:55:48.006Z,938.50
2018-12-14T06:56:56.083Z,938.49
2018-12-14T06:58:04.149Z,938.54
2018-12-14T06:59:12.268Z,938.53
2018-12-14T07:00:20.199Z,938.57
2018-12-14T07:01:28.564Z,938.58
2018-12-14T07:02:36.320Z,938.58
2018-12-14T07:03:44.382Z,938.58
2018-12-14T07:04:53.370Z,938.61
2018-12-14T07:06:00.471Z,938.62
2018-12-14T07:07:08.526Z,938.62
2018-12-14T07:08:16.630Z,938.59
2018-12-14T07:09:24.630Z,938.65
2018-12-14T07:10:32.771Z,938.65
2018-12-14T07:11:40.733Z,938.69
2018-12-14T07:12:48.788Z,938.78
2018-12-14T07:13:57.061Z,938.77
2018-12-14T07:15:04.870Z,938.80
2018-12-14T07:16:13.043Z,938.75
2018-12-14T07:17:21.000Z,938.82
2018-12-14T07:18:29.111Z,938.76
2018-12-14T07:19:37.115Z,938.75
2018-12-14T07:20:45.127Z,938.79
2018-12-14T07:21:53.291Z,938.80
2018-12-14T07:23:01.357Z,938.80
2018-12-14T07:24:09.289Z,938.86
2018-12-14T07:25:17.361Z,938.84
2018-12-14T07:26:25.393Z,938.85
2018-12-14T07:27:33.563Z,938.89
2018-12-14T07:28:41.510Z,938.85
2018-12-14T07:29:49.557Z,938.87
2018-12-14T07:30:57.611Z,938.86
2018-12-14T07:32:05.661Z,938.88
2018-12-14T07:33:13.807Z,938.86
2018-12-14T07:34:21.776Z,938.87
2018-12-14T07:35:29.808Z,938.87
2018-12-14T07:36:37.862Z,938.85
2018-12-14T07:37:46.029Z,938.87
2018-12-14T07:38:53.960Z,938.93
2018-12-14T07:40:02.026Z,938.91
2018-12-14T07:41:10.070Z,938.95
2018-12-14T07:42:18.135Z,938.97
2018-12-14T07:43:28.346Z,938.90
2018-12-14T07:44:34.273Z,938.93
2018-12-14T07:45:42.302Z,938.96
2018-12-14T07:46:50.344Z,938.94
2018-12-14T07:48:00.089Z,938.95
2018-12-14T07:49:06.536Z,938.95
2018-12-14T07:50:14.820Z,938.97
2018-12-14T07:51:22.845Z,939.02
2018-12-14T07:52:30.916Z,939.02
2018-12-14T07:53:39.137Z,939.04
2018-12-14T07:54:47.190Z,939.04
2018-12-14T07:55:54.955Z,939.08
2018-12-14T07:57:03.362Z,939.07
2018-12-14T07:58:10.857Z,939.07
2018-12-14T07:59:18.905Z,939.05
2018-12-14T08:00:27.047Z,939.09
2018-12-14T08:01:34.987Z,939.04
2018-12-14T08:02:43.107Z,939.11
2018-12-14T08:03:51.121Z,939.08
2018-12-14T08:04:59.163Z,939.11
2018-12-14T08:06:07.321Z,939.05
2018-12-14T08:07:15.260Z,939.07
2018-12-14T08:08:23.318Z,939.04
2018-12-14T08:09:31.478Z,939.06
2018-12-14T08:10:39.428Z,939.05
2018-12-14T08:11:47.580Z,939.07
2018-12-14T08:12:55.526Z,939.08
2018-12-14T08:14:03.581Z,939.04
2018-12-14T08:15:11.633Z,939.07
2018-12-14T08:16:19.687Z,939.13
2018-12-14T08:17:28.066Z,939.14
2018-12-14T08:18:35.789Z,939.14
2018-12-14T08:19:43.843Z,939.17
2018-12-14T08:20:51.908Z,939.17
2018-12-14T08:21:59.951Z,939.11
2018-12-14T08:23:08.130Z,939.17
2018-12-14T08:24:16.399Z,939.15
2018-12-14T08:25:24.203Z,939.16
2018-12-14T08:26:32.165Z,939.19
2018-12-14T08:27:41.033Z,939.24
2018-12-14T08:28:48.853Z,939.24
2018-12-14T08:29:56.878Z,939.21
2018-12-14T08:31:04.674Z,939.29
2018-12-14T08:32:13.005Z,939.25
2018-12-14T08:33:20.559Z,939.29
2018-12-14T08:34:28.537Z,939.28
2018-12-14T08:35:36.586Z,939.31
2018-12-14T08:36:44.623Z,939.35
2018-12-14T08:37:52.681Z,939.38
2018-12-14T08:39:00.830Z,939.35
2018-12-14T08:40:08.789Z,939.35
2018-12-14T08:41:16.937Z,939.37
2018-12-14T08:42:24.879Z,939.38
2018-12-14T08:43:32.937Z,939.42
2018-12-14T08:44:41.081Z,939.46
2018-12-14T08:45:49.047Z,939.48
2018-12-14T08:46:57.088Z,939.44
2018-12-14T08:48:05.134Z,939.50
2018-12-14T08:49:13.218Z,939.47
2018-12-14T08:50:21.904Z,939.49
2018-12-14T08:51:29.313Z,939.57
2018-12-14T08:52:37.371Z,939.53
2018-12-14T08:53:45.411Z,939.57
2018-12-14T08:54:53.479Z,939.57
2018-12-14T08:56:01.761Z,939.58
2018-12-14T08:57:09.665Z,939.61
2018-12-14T08:58:17.624Z,939.65
2018-12-14T08:59:25.661Z,939.67
2018-12-14T09:00:33.732Z,939.66
2018-12-14T09:01:41.874Z,939.63
2018-12-14T09:02:49.829Z,939.66
2018-12-14T09:03:57.890Z,939.69
2018-12-14T09:05:05.931Z,939.62
2018-12-14T09:06:13.997Z,939.67
2018-12-14T09:07:24.621Z,939.68
2018-12-14T09:08:30.094Z,939.72
2018-12-14T09:09:38.146Z,939.74
2018-12-14T09:10:46.193Z,939.76
2018-12-14T09:11:54.249Z,939.80
2018-12-14T09:13:02.409Z,939.82
2018-12-14T09:14:10.358Z,939.82
2018-12-14T09:15:18.421Z,939.90
2018-12-14T09:16:26.457Z,939.89
2018-12-14T09:17:34.613Z,939.95
2018-12-14T09:18:42.576Z,939.95
2018-12-14T09:19:50.626Z,940.00
2018-12-14T09:21:01.143Z,940.02
2018-12-14T09:22:06.719Z,940.04
2018-12-14T09:23:14.856Z,940.05
2018-12-14T09:24:22.826Z,940.05
2018-12-14T09:25:30.877Z,940.05
2018-12-14T09:26:38.932Z,940.06
2018-12-14T09:27:47.092Z,940.08
2018-12-14T09:28:55.015Z,940.04
2018-12-14T09:30:03.114Z,940.01
2018-12-14T09:31:11.153Z,940.07
2018-12-14T09:32:19.202Z,940.05
2018-12-14T09:33:27.357Z,940.07
2018-12-14T09:34:35.282Z,940.06
2018-12-14T09:35:43.369Z,940.08
2018-12-14T09:36:51.423Z,940.10
2018-12-14T09:37:59.455Z,940.08
2018-12-14T09:39:07.608Z,940.12
2018-12-14T09:40:15.541Z,940.09
2018-12-14T09:41:23.624Z,940.13
2018-12-14T09:42:31.728Z,940.11
2018-12-14T09:43:39.730Z,940.15
2018-12-14T09:44:47.881Z,940.10
2018-12-14T09:45:55.805Z,940.11
2018-12-14T09:47:03.898Z,940.14
2018-12-14T09:48:11.936Z,940.11
2018-12-14T09:49:19.985Z,940.11
2018-12-14T09:50:29.060Z,940.08
2018-12-14T09:51:36.103Z,940.19
2018-12-14T09:52:44.147Z,940.20
2018-12-14T09:53:52.214Z,940.22
2018-12-14T09:55:00.263Z,940.24
2018-12-14T09:56:08.414Z,940.24
2018-12-14T09:57:16.350Z,940.28
2018-12-14T09:58:24.519Z,940.27
2018-12-14T09:59:32.463Z,940.29
2018-12-14T10:00:40.687Z,940.32
2018-12-14T10:01:48.656Z,940.35
2018-12-14T10:02:56.625Z,940.35
2018-12-14T10:04:04.688Z,940.32
2018-12-14T10:05:12.728Z,940.34
2018-12-14T10:06:20.779Z,940.35
2018-12-14T10:07:28.919Z,940.36
2018-12-14T10:08:36.888Z,940.33
2018-12-14T10:09:45.171Z,940.35
2018-12-14T10:10:52.988Z,940.35
2018-12-14T10:12:01.051Z,940.36
2018-12-14T10:13:09.214Z,940.41
2018-12-14T10:14:17.151Z,940.44
2018-12-14T10:15:25.184Z,940.43
2018-12-14T10:16:33.271Z,940.43
2018-12-14T10:17:41.415Z,940.45
2018-12-14T10:18:49.382Z,940.47
2018-12-14T10:19:57.432Z,940.47
2018-12-14T10:21:05.466Z,940.48
2018-12-14T10:22:13.535Z,940.48
2018-12-14T10:23:21.668Z,940.47
2018-12-14T10:24:29.638Z,940.50
2018-12-14T10:25:37.804Z,940.48
2018-12-14T10:26:45.723Z,940.48
2018-12-14T10:27:53.797Z,940.47
2018-12-14T10:29:02.662Z,940.52
2018-12-14T10:30:09.899Z,940.55
2018-12-14T10:31:17.948Z,940.49
2018-12-14T10:32:25.999Z,940.50
2018-12-14T10:33:34.067Z,940.50
2018-12-14T10:34:42.555Z,940.49
2018-12-14T10:35:50.165Z,940.48
2018-12-14T10:36:58.212Z,940.49
2018-12-14T10:38:06.273Z,940.48
2018-12-14T10:39:14.328Z,940.50
2018-12-14T10:40:22.462Z,940.44
2018-12-14T10:41:30.438Z,940.49
2018-12-14T10:42:38.503Z,940.46
2018-12-14T10:43:46.536Z,940.45
2018-12-14T10:44:54.694Z,940.44
2018-12-14T10:46:02.745Z,940.42
2018-12-14T10:47:10.706Z,940.40
2018-12-14T10:48:18.756Z,940.44
2018-12-14T10:49:26.806Z,940.40
2018-12-14T10:50:39.577Z,940.40
2018-12-14T10:51:43.003Z,940.43
2018-12-14T10:52:50.959Z,940.47
2018-12-14T10:53:59.040Z,940.42
2018-12-14T10:55:07.073Z,940.42
2018-12-14T10:56:15.112Z,940.41
2018-12-14T10:57:23.278Z,940.39
2018-12-14T10:58:31.224Z,940.38
2018-12-14T10:59:39.298Z,940.42
2018-12-14T11:00:47.735Z,940.40
2018-12-14T11:01:55.379Z,940.41
2018-12-14T11:03:03.868Z,940.43
2018-12-14T11:04:11.509Z,940.45
2018-12-14T11:05:19.562Z,940.48
2018-12-14T11:06:27.727Z,940.46
2018-12-14T11:07:35.676Z,940.45
2018-12-14T11:08:43.772Z,940.46
2018-12-14T11:09:51.754Z,940.39
2018-12-14T11:10:59.815Z,940.41
2018-12-14T11:12:07.863Z,940.42
2018-12-14T11:13:16.017Z,940.40
2018-12-14T11:14:23.985Z,940.36
2018-12-14T11:15:32.021Z,940.37
2018-12-14T11:16:40.221Z,940.37
2018-12-14T11:17:48.767Z,940.35
2018-12-14T11:18:56.338Z,940.37
2018-12-14T11:20:04.244Z,940.37
2018-12-14T11:21:12.305Z,940.38
2018-12-14T11:22:20.354Z,940.43
2018-12-14T11:23:28.411Z,940.42
2018-12-14T11:24:36.557Z,940.42
2018-12-14T11:25:44.509Z,940.45
2018-12-14T11:26:53.596Z,940.43
2018-12-14T11:28:00.611Z,940.45
2018-12-14T11:29:08.687Z,940.44
2018-12-14T11:30:16.877Z,940.42
2018-12-14T11:31:24.800Z,940.41
2018-12-14T11:32:32.887Z,940.43
2018-12-14T11:33:40.886Z,940.42
2018-12-14T11:34:48.947Z,940.44
2018-12-14T11:35:57.093Z,940.43
2018-12-14T11:37:05.026Z,940.38
2018-12-14T11:38:13.084Z,940.38
2018-12-14T11:39:21.171Z,940.39
2018-12-14T11:40:29.207Z,940.38
2018-12-14T11:41:37.343Z,940.35
2018-12-14T11:42:45.296Z,940.35
2018-12-14T11:43:53.360Z,940.38
2018-12-14T11:45:01.421Z,940.43
2018-12-14T11:46:09.461Z,940.38
2018-12-14T11:47:18.227Z,940.38
2018-12-14T11:48:25.609Z,940.34
2018-12-14T11:49:33.663Z,940.35
2018-12-14T11:50:41.704Z,940.31
2018-12-14T11:51:49.725Z,940.34
2018-12-14T11:52:57.899Z,940.32
2018-12-14T11:54:05.830Z,940.33
2018-12-14T11:55:13.898Z,940.33
2018-12-14T11:56:21.979Z,940.33
2018-12-14T11:57:30.077Z,940.34
2018-12-14T11:58:38.052Z,940.31
2018-12-14T11:59:46.147Z,940.29
2018-12-14T12:00:54.152Z,940.28
2018-12-14T12:02:02.221Z,940.25
2018-12-14T12:03:10.315Z,940.30
2018-12-14T12:04:18.341Z,940.22
2018-12-14T12:05:26.386Z,940.30
2018-12-14T12:06:34.432Z,940.29
2018-12-14T12:07:42.559Z,940.29
2018-12-14T12:08:50.539Z,940.29
2018-12-14T12:09:58.605Z,940.28
2018-12-14T12:11:06.642Z,940.31
2018-12-14T12:12:14.694Z,940.27
2018-12-14T12:13:22.821Z,940.24
2018-12-14T12:14:30.799Z,940.27
2018-12-14T12:15:39.025Z,940.26
2018-12-14T12:16:46.902Z,940.23
2018-12-14T12:17:55.068Z,940.23
2018-12-14T12:19:03.093Z,940.18
2018-12-14T12:20:11.081Z,940.22
2018-12-14T12:21:19.112Z,940.17
2018-12-14T12:22:27.184Z,940.17
2018-12-14T12:23:35.198Z,940.16
2018-12-14T12:24:43.379Z,940.24
2018-12-14T12:25:51.332Z,940.27
2018-12-14T12:26:59.385Z,940.29
2018-12-14T12:28:08.012Z,940.22
2018-12-14T12:29:15.460Z,940.22
2018-12-14T12:30:23.647Z,940.20
2018-12-14T12:31:31.605Z,940.24
2018-12-14T12:32:39.651Z,940.21
2018-12-14T12:33:48.535Z,940.24
2018-12-14T12:34:55.735Z,940.22
2018-12-14T12:36:04.067Z,940.27
2018-12-14T12:37:11.862Z,940.27
2018-12-14T12:38:19.910Z,940.23
2018-12-14T12:39:27.967Z,940.24
2018-12-14T12:40:36.023Z,940.20
2018-12-14T12:41:44.183Z,940.26
2018-12-14T12:42:52.141Z,940.25
2018-12-14T12:44:00.184Z,940.26
2018-12-14T12:45:08.780Z,940.23
2018-12-14T12:46:16.469Z,940.25
2018-12-14T12:47:24.508Z,940.26
2018-12-14T12:48:32.410Z,940.22
2018-12-14T12:49:40.564Z,940.24
2018-12-14T12:50:48.555Z,940.22
2018-12-14T12:51:56.929Z,940.22
2018-12-14T12:53:04.714Z,940.23
2018-12-14T12:54:12.655Z,940.22
2018-12-14T12:55:20.714Z,940.23
2018-12-14T12:56:28.769Z,940.18
2018-12-14T12:57:36.907Z,940.17
2018-12-14T12:58:44.871Z,940.18
2018-12-14T12:59:52.930Z,940.20
2018-12-14T13:01:01.254Z,940.21
2018-12-14T13:02:09.045Z,940.23
2018-12-14T13:03:17.184Z,940.26
2018-12-14T13:04:25.136Z,940.23
2018-12-14T13:05:34.904Z,940.22
2018-12-14T13:06:41.242Z,940.24
2018-12-14T13:07:49.318Z,940.25
2018-12-14T13:08:57.456Z,940.29
2018-12-14T13:10:05.406Z,940.25
2018-12-14T13:11:13.484Z,940.27
2018-12-14T13:12:21.509Z,940.31
2018-12-14T13:13:29.552Z,940.31
2018-12-14T13:14:40.098Z,940.28
2018-12-14T13:15:45.677Z,940.25
2018-12-14T13:16:53.726Z,940.27
2018-12-14T13:18:01.799Z,940.26
2018-12-14T13:19:09.838Z,940.25
2018-12-14T13:20:17.996Z,940.31
2018-12-14T13:21:26.030Z,940.31
2018-12-14T13:22:34.005Z,940.33
2018-12-14T13:23:42.051Z,940.33
2018-12-14T13:24:50.109Z,940.31
2018-12-14T13:25:58.253Z,940.31
2018-12-14T13:27:06.214Z,940.31
2018-12-14T13:28:14.261Z,940.31
2018-12-14T13:29:22.319Z,940.35
2018-12-14T13:30:30.370Z,940.29
2018-12-14T13:31:38.523Z,940.36
2018-12-14T13:32:46.476Z,940.33
2018-12-14T13:33:54.540Z,940.36
2018-12-14T13:35:02.589Z,940.37
2018-12-14T13:36:10.654Z,940.40
2018-12-14T13:37:18.782Z,940.39
2018-12-14T13:38:26.733Z,940.35
2018-12-14T13:39:34.799Z,940.37
2018-12-14T13:40:42.888Z,940.39
2018-12-14T13:41:50.897Z,940.40
2018-12-14T13:43:01.573Z,940.40
2018-12-14T13:44:06.992Z,940.36
2018-12-14T13:45:15.036Z,940.41
2018-12-14T13:46:23.107Z,940.43
2018-12-14T13:47:31.217Z,940.41
2018-12-14T13:48:39.228Z,940.44
2018-12-14T13:49:47.275Z,940.42
2018-12-14T13:50:55.314Z,940.46
2018-12-14T13:52:03.384Z,940.49
2018-12-14T13:53:11.630Z,940.49
2018-12-14T13:54:19.479Z,940.54
2018-12-14T13:55:27.533Z,940.60
2018-12-14T13:56:35.586Z,940.63
2018-12-14T13:57:43.736Z,940.60
2018-12-14T13:58:51.690Z,940.61
2018-12-14T13:59:59.749Z,940.62
2018-12-14T14:01:07.809Z,940.63
2018-12-14T14:02:15.832Z,940.65
2018-12-14T14:03:24.007Z,940.60
2018-12-14T14:04:31.935Z,940.59
2018-12-14T14:05:40.025Z,940.66
2018-12-14T14:06:48.054Z,940.68
2018-12-14T14:07:56.211Z,940.66
2018-12-14T14:09:04.311Z,940.70